Time;durP1;ratioP1;P1;durP2;ratioP2;P2;SDS_P1;SDS_P2;PMS_P1;PMS_P2;Temp;Humidity;BMP_temperature;BMP_pressure;BME280_temperature;BME280_humidity;BME280_pressure;Samples;Min_cycle;Max_cycle;Signal;HPM_P1;HPM_P2
2022/08/21 00:02:33;;;;;;;0.95;0.75;;;23.80;58.20;;;;;;6222049;28;20046;-71
2022/08/21 00:05:38;;;;;;;0.82;0.80;;;23.80;57.50;;;;;;6221739;28;20038;-72
2022/08/21 00:08:39;;;;;;;0.80;0.80;;;23.80;57.50;;;;;;6197419;28;20187;-71
2022/08/21 00:11:40;;;;;;;0.90;0.70;;;23.80;57.50;;;;;;6219823;28;20095;-72
2022/08/21 00:14:41;;;;;;;0.70;0.70;;;23.80;57.50;;;;;;6216496;28;20023;-72
2022/08/21 00:17:42;;;;;;;1.02;0.73;;;23.80;57.50;;;;;;6197745;28;20034;-71
2022/08/21 00:20:44;;;;;;;1.10;0.65;;;23.80;57.50;;;;;;6209553;28;20030;-71
2022/08/21 00:23:45;;;;;;;0.73;0.73;;;23.80;57.50;;;;;;6222019;28;20395;-72
2022/08/21 00:26:46;;;;;;;0.75;0.75;;;23.80;57.50;;;;;;6206081;28;20018;-71
2022/08/21 00:29:47;;;;;;;0.80;0.80;;;23.80;57.50;;;;;;6217578;28;20026;-71
2022/08/21 00:32:48;;;;;;;0.70;0.70;;;23.80;57.50;;;;;;6196851;28;20080;-71
2022/08/21 00:35:49;;;;;;;0.82;0.70;;;23.80;57.50;;;;;;6207424;28;20088;-72
2022/08/21 00:38:49;;;;;;;0.90;0.70;;;23.80;57.50;;;;;;6221788;28;20499;-72
2022/08/21 00:41:50;;;;;;;0.68;0.57;;;23.80;57.50;;;;;;6225186;28;20124;-72
2022/08/21 00:44:51;;;;;;;1.08;0.85;;;23.80;57.50;;;;;;6208449;28;20030;-71
2022/08/21 00:47:53;;;;;;;0.80;0.80;;;23.80;57.50;;;;;;6221640;28;20026;-71
2022/08/21 00:51:12;;;;;;;1.10;0.80;;;23.80;57.50;;;;;;6210664;28;20397;-71
2022/08/21 00:54:14;;;;;;;0.70;0.70;;;23.80;57.50;;;;;;6196613;28;20412;-71
2022/08/21 00:57:20;;;;;;;0.90;0.60;;;23.80;57.50;;;;;;6220783;28;20033;-71
2022/08/21 01:00:32;;;;;;;0.93;0.70;;;23.80;57.50;;;;;;6221813;28;20038;-71
2022/08/21 01:03:33;;;;;;;0.85;0.70;;;23.80;57.50;;;;;;6202302;28;20373;-71
2022/08/21 01:06:34;;;;;;;1.10;0.70;;;23.80;57.50;;;;;;6215547;28;20026;-71
2022/08/21 01:09:37;;;;;;;0.70;0.70;;;23.80;57.50;;;;;;6222787;28;20042;-71
2022/08/21 01:12:39;;;;;;;0.70;0.70;;;23.80;57.50;;;;;;6204790;28;20034;-72
2022/08/21 01:15:44;;;;;;;0.60;0.60;;;23.80;57.50;;;;;;6206614;28;20065;-71
2022/08/21 01:18:45;;;;;;;0.80;0.80;;;23.80;57.50;;;;;;6222763;28;20030;-72
2022/08/21 01:21:46;;;;;;;0.70;0.55;;;23.80;57.50;;;;;;6223302;28;20037;-71
2022/08/21 01:24:46;;;;;;;0.60;0.60;;;23.80;57.50;;;;;;6236261;28;20503;-72
2022/08/21 01:27:47;;;;;;;2.58;0.90;;;23.80;57.50;;;;;;6215274;28;20026;-71
2022/08/21 01:30:51;;;;;;;1.10;0.70;;;23.80;57.50;;;;;;6203303;28;20045;-72
2022/08/21 01:33:52;;;;;;;0.70;0.50;;;23.80;57.50;;;;;;6225414;28;20030;-71
2022/08/21 01:36:53;;;;;;;0.70;0.70;;;23.80;57.50;;;;;;6213720;28;20403;-71
2022/08/21 01:39:54;;;;;;;0.65;0.65;;;23.80;57.50;;;;;;6200918;28;20041;-72
2022/08/21 01:42:54;;;;;;;0.82;0.75;;;23.80;57.50;;;;;;6220571;28;20034;-71
2022/08/21 01:45:55;;;;;;;1.05;0.88;;;23.80;57.50;;;;;;6224951;28;20045;-71
2022/08/21 01:48:56;;;;;;;0.73;0.68;;;23.80;57.60;;;;;;6240090;28;20455;-71
2022/08/21 01:51:57;;;;;;;0.80;0.63;;;23.80;57.50;;;;;;6213628;28;20385;-71
2022/08/21 01:54:57;;;;;;;0.70;0.70;;;23.80;57.50;;;;;;6199757;28;20034;-71
2022/08/21 01:57:59;;;;;;;0.73;0.73;;;23.80;57.50;;;;;;6216033;28;20042;-71
2022/08/21 02:01:02;;;;;;;0.80;0.80;;;23.80;57.50;;;;;;6223001;28;20082;-71
2022/08/21 02:04:03;;;;;;;0.68;0.68;;;23.80;57.50;;;;;;6200569;28;20030;-71
2022/08/21 02:07:04;;;;;;;0.60;0.52;;;23.80;57.50;;;;;;6209648;28;20033;-71
2022/08/21 02:10:08;;;;;;;0.88;0.70;;;23.80;57.50;;;;;;6223755;28;20088;-71
2022/08/21 02:13:10;;;;;;;1.00;0.80;;;23.80;57.50;;;;;;6207289;28;20068;-71
2022/08/21 02:16:12;;;;;;;0.73;0.70;;;23.80;57.50;;;;;;6201292;28;20041;-71
2022/08/21 02:19:14;;;;;;;0.50;0.50;;;23.80;57.50;;;;;;6224777;28;20030;-71
2022/08/21 02:22:15;;;;;;;0.85;0.70;;;23.80;57.50;;;;;;6215330;28;20026;-71
2022/08/21 02:25:17;;;;;;;0.60;0.60;;;23.80;57.50;;;;;;6209204;28;20040;-71
2022/08/21 02:28:17;;;;;;;0.70;0.60;;;23.80;57.50;;;;;;6206515;28;20088;-71
2022/08/21 02:31:18;;;;;;;0.70;0.60;;;23.70;57.50;;;;;;6199265;28;20436;-72
2022/08/21 02:34:19;;;;;;;0.52;0.52;;;23.70;57.50;;;;;;6224222;28;20427;-71
2022/08/21 02:37:20;;;;;;;0.60;0.60;;;23.80;57.60;;;;;;6215367;28;20386;-71
2022/08/21 02:40:25;;;;;;;0.77;0.60;;;23.80;57.50;;;;;;6211564;28;20088;-71
2022/08/21 02:43:27;;;;;;;0.60;0.60;;;23.80;57.50;;;;;;6215392;28;20044;-71
2022/08/21 02:46:28;;;;;;;0.65;0.55;;;23.80;57.60;;;;;;6223737;28;20105;-71
2022/08/21 02:49:29;;;;;;;0.52;0.52;;;23.80;57.50;;;;;;6224130;28;20406;-72
2022/08/21 02:52:29;;;;;;;0.88;0.82;;;23.70;57.50;;;;;;6217140;28;20038;-71
2022/08/21 02:55:32;;;;;;;0.70;0.60;;;23.80;57.50;;;;;;6199372;28;20026;-71
2022/08/21 02:58:37;;;;;;;0.68;0.50;;;23.80;57.50;;;;;;6214173;28;20148;-71
2022/08/21 03:01:37;;;;;;;0.63;0.63;;;23.80;57.50;;;;;;6223552;28;20117;-73
2022/08/21 03:04:38;;;;;;;0.60;0.60;;;23.80;57.50;;;;;;6200563;28;20026;-71
2022/08/21 03:07:39;;;;;;;0.50;0.50;;;23.80;57.60;;;;;;6204808;28;20018;-71
2022/08/21 03:10:43;;;;;;;0.50;0.50;;;23.80;57.50;;;;;;6218872;28;20152;-71
2022/08/21 03:13:44;;;;;;;0.73;0.60;;;23.80;57.50;;;;;;6209317;28;20064;-71
2022/08/21 03:16:44;;;;;;;0.60;0.60;;;23.80;57.50;;;;;;6199276;28;20026;-71
2022/08/21 03:19:45;;;;;;;0.85;0.63;;;23.80;57.50;;;;;;6219865;28;20414;-71
2022/08/21 03:22:46;;;;;;;0.50;0.50;;;23.80;57.50;;;;;;6218252;28;20036;-71
2022/08/21 03:25:48;;;;;;;0.80;0.80;;;23.80;57.50;;;;;;6198431;28;20042;-71
2022/08/21 03:28:50;;;;;;;0.68;0.68;;;23.80;57.50;;;;;;6207765;28;20054;-72
2022/08/21 03:31:53;;;;;;;0.70;0.60;;;23.80;57.50;;;;;;6198366;28;20456;-71
2022/08/21 03:34:54;;;;;;;0.82;0.63;;;23.80;57.50;;;;;;6219290;28;20418;-71
2022/08/21 03:37:55;;;;;;;0.57;0.57;;;23.80;57.50;;;;;;6218360;28;20040;-71
2022/08/21 03:40:56;;;;;;;0.50;0.50;;;23.80;57.50;;;;;;6198250;28;20034;-71
2022/08/21 03:43:57;;;;;;;0.60;0.60;;;23.80;57.50;;;;;;6209929;28;20022;-72
2022/08/21 03:46:58;;;;;;;0.98;0.60;;;23.80;57.60;;;;;;6222722;28;20091;-72
2022/08/21 03:49:59;;;;;;;0.73;0.70;;;23.80;57.60;;;;;;6222516;28;20022;-71
2022/08/21 03:53:00;;;;;;;0.47;0.47;;;23.80;57.50;;;;;;6219538;28;20035;-71
2022/08/21 03:56:02;;;;;;;0.50;0.50;;;23.80;57.60;;;;;;6198165;28;20074;-71
2022/08/21 03:59:03;;;;;;;0.63;0.63;;;23.80;57.60;;;;;;6208573;28;20037;-71
2022/08/21 04:02:06;;;;;;;0.47;0.47;;;23.80;57.60;;;;;;6222194;28;20395;-71
2022/08/21 04:05:08;;;;;;;1.00;0.70;;;23.80;57.60;;;;;;6203633;28;20093;-72
2022/08/21 04:08:08;;;;;;;0.52;0.52;;;23.80;57.60;;;;;;6199574;28;20690;-72
2022/08/21 04:11:12;;;;;;;0.63;0.63;;;23.80;57.60;;;;;;6222105;28;20034;-73
2022/08/21 04:14:14;;;;;;;0.80;0.70;;;23.80;57.60;;;;;;6212414;28;20030;-71
2022/08/21 04:17:15;;;;;;;0.68;0.60;;;23.80;57.60;;;;;;6197489;28;20045;-71
2022/08/21 04:20:17;;;;;;;0.50;0.50;;;23.80;57.60;;;;;;6215288;28;20073;-72
2022/08/21 04:23:20;;;;;;;1.05;0.70;;;23.80;57.60;;;;;;6220759;28;20030;-71
2022/08/21 04:26:21;;;;;;;0.80;0.52;;;23.80;57.60;;;;;;6199453;28;20654;-71
2022/08/21 04:29:21;;;;;;;0.82;0.80;;;23.80;57.60;;;;;;6212573;28;20038;-72
2022/08/21 04:32:26;;;;;;;1.10;0.73;;;23.80;57.60;;;;;;6196530;28;20620;-72
2022/08/21 04:35:27;;;;;;;0.82;0.70;;;23.80;57.60;;;;;;6214397;28;20064;-71
2022/08/21 04:38:30;;;;;;;0.40;0.40;;;23.70;57.50;;;;;;6221097;28;20509;-71
2022/08/21 04:41:31;;;;;;;0.52;0.52;;;23.80;57.60;;;;;;6197059;28;20096;-71
2022/08/21 04:44:31;;;;;;;0.73;0.60;;;23.80;57.60;;;;;;6201317;28;20026;-71
2022/08/21 04:47:32;;;;;;;0.50;0.50;;;23.80;57.60;;;;;;6196913;28;20034;-71
2022/08/21 04:50:39;;;;;;;0.80;0.50;;;23.70;57.50;;;;;;6213066;28;20029;-71
2022/08/21 04:53:50;;;;;;;0.70;0.70;;;23.80;57.60;;;;;;6221476;28;20029;-71
2022/08/21 04:56:59;;;;;;;0.75;0.70;;;23.80;57.60;;;;;;6196715;28;20030;-71
2022/08/21 05:00:40;;;;;;;1.30;0.80;;;23.80;57.60;;;;;;6205934;28;20088;-71
2022/08/21 05:03:42;;;;;;;0.60;0.55;;;23.80;57.60;;;;;;6197679;28;20039;-71
2022/08/21 05:06:46;;;;;;;0.90;0.68;;;23.80;57.60;;;;;;6220045;28;20022;-72
2022/08/21 05:09:47;;;;;;;0.88;0.60;;;23.70;57.50;;;;;;6214115;28;20033;-72
2022/08/21 05:12:47;;;;;;;0.70;0.70;;;23.80;57.60;;;;;;6196741;28;20500;-71
2022/08/21 05:15:48;;;;;;;0.55;0.50;;;23.70;57.50;;;;;;6211504;28;20030;-71
2022/08/21 05:18:49;;;;;;;0.50;0.50;;;23.80;57.60;;;;;;6221029;28;20050;-72
2022/08/21 05:21:49;;;;;;;1.15;0.77;;;23.80;57.60;;;;;;6198920;28;20066;-72
2022/08/21 05:24:51;;;;;;;0.50;0.50;;;23.80;57.60;;;;;;6201726;28;20538;-71
2022/08/21 05:27:52;;;;;;;0.80;0.65;;;23.80;57.60;;;;;;6206713;28;20062;-71
2022/08/21 05:30:53;;;;;;;0.95;0.57;;;23.80;57.60;;;;;;6209806;28;20058;-72
2022/08/21 05:33:54;;;;;;;0.93;0.60;;;23.80;57.60;;;;;;6220853;28;20030;-72
2022/08/21 05:36:55;;;;;;;0.55;0.55;;;23.70;57.50;;;;;;6200221;28;20113;-71
2022/08/21 05:39:55;;;;;;;0.50;0.50;;;23.70;57.50;;;;;;6200241;28;20065;-71
2022/08/21 05:42:58;;;;;;;0.63;0.60;;;23.80;57.60;;;;;;6222904;28;20037;-71
2022/08/21 05:45:59;;;;;;;1.70;0.60;;;23.70;57.50;;;;;;6224859;28;20029;-71
2022/08/21 05:49:00;;;;;;;0.47;0.47;;;23.70;57.50;;;;;;6225689;28;20080;-72
2022/08/21 05:52:01;;;;;;;0.65;0.60;;;23.70;57.60;;;;;;6205660;28;20058;-71
2022/08/21 05:55:01;;;;;;;0.70;0.55;;;23.80;57.60;;;;;;6203257;28;20081;-71
2022/08/21 05:58:04;;;;;;;0.93;0.88;;;23.80;57.60;;;;;;6225107;28;20029;-71
2022/08/21 06:01:06;;;;;;;0.70;0.60;;;23.70;57.50;;;;;;6214672;28;20042;-71
2022/08/21 06:04:07;;;;;;;0.70;0.70;;;23.70;57.50;;;;;;6200583;28;20396;-71
2022/08/21 06:07:08;;;;;;;1.50;0.82;;;23.70;58.00;;;;;;6219067;28;20026;-71
2022/08/21 06:10:10;;;;;;;0.68;0.60;;;23.70;57.50;;;;;;6222882;28;20021;-70
2022/08/21 06:13:11;;;;;;;0.70;0.60;;;23.80;57.60;;;;;;6200053;28;20384;-71
2022/08/21 06:16:15;;;;;;;0.50;0.50;;;23.70;57.50;;;;;;6209792;28;20468;-72
2022/08/21 06:19:16;;;;;;;0.67;0.60;;;23.70;57.50;;;;;;6225126;28;20506;-71
2022/08/21 06:22:17;;;;;;;0.90;0.63;;;23.80;57.60;;;;;;6207211;28;20042;-72
2022/08/21 06:25:19;;;;;;;0.60;0.50;;;23.70;57.50;;;;;;6200938;28;20531;-73
2022/08/21 06:28:19;;;;;;;0.70;0.40;;;23.70;57.50;;;;;;6207142;28;20038;-71
2022/08/21 06:31:22;;;;;;;0.80;0.70;;;23.70;57.50;;;;;;6208467;28;20495;-72
2022/08/21 06:34:23;;;;;;;0.73;0.73;;;23.70;57.50;;;;;;6220381;28;20113;-72
2022/08/21 06:37:23;;;;;;;0.80;0.70;;;23.70;57.50;;;;;;6208464;28;20381;-71
2022/08/21 06:40:28;;;;;;;0.55;0.55;;;23.80;57.60;;;;;;6199610;28;20101;-71
2022/08/21 06:43:29;;;;;;;0.70;0.55;;;23.80;57.60;;;;;;6199520;28;20476;-71
2022/08/21 06:46:30;;;;;;;0.80;0.80;;;23.80;57.60;;;;;;6206998;28;20045;-72
2022/08/21 06:49:31;;;;;;;0.75;0.60;;;23.70;57.50;;;;;;6222276;28;20084;-72
2022/08/21 06:52:31;;;;;;;0.70;0.63;;;23.80;57.70;;;;;;6208702;28;20030;-72
2022/08/21 06:55:32;;;;;;;0.70;0.70;;;23.70;57.60;;;;;;6198872;28;20430;-71
2022/08/21 06:58:33;;;;;;;0.60;0.50;;;23.70;57.50;;;;;;6222677;28;20026;-72
2022/08/21 07:01:34;;;;;;;0.50;0.50;;;23.70;57.60;;;;;;6217400;28;20034;-71
2022/08/21 07:04:34;;;;;;;0.65;0.50;;;23.70;57.50;;;;;;6199098;28;20045;-71
2022/08/21 07:07:35;;;;;;;0.40;0.40;;;23.70;57.60;;;;;;6213069;28;20033;-71
2022/08/21 07:10:36;;;;;;;0.60;0.55;;;23.70;57.60;;;;;;6223469;28;20117;-72
2022/08/21 07:13:37;;;;;;;1.20;0.75;;;23.70;57.60;;;;;;6201707;28;20030;-71
2022/08/21 07:16:37;;;;;;;0.70;0.65;;;23.70;57.60;;;;;;6203742;28;20384;-71
2022/08/21 07:19:38;;;;;;;0.57;0.57;;;23.70;57.60;;;;;;6222968;28;20068;-71
2022/08/21 07:22:39;;;;;;;0.95;0.50;;;23.70;57.60;;;;;;6211184;28;20038;-72
2022/08/21 07:25:40;;;;;;;0.95;0.70;;;23.70;57.60;;;;;;6211343;28;20441;-71
2022/08/21 07:28:40;;;;;;;0.50;0.50;;;23.70;57.60;;;;;;6198745;28;20044;-71
2022/08/21 07:31:41;;;;;;;0.80;0.60;;;23.70;57.60;;;;;;6204217;28;20073;-71
2022/08/21 07:34:42;;;;;;;0.73;0.55;;;23.70;57.60;;;;;;6222732;28;20030;-71
2022/08/21 07:37:42;;;;;;;0.65;0.60;;;23.70;57.60;;;;;;6212340;28;20045;-72
2022/08/21 07:40:43;;;;;;;0.90;0.60;;;23.70;57.60;;;;;;6198061;28;20030;-70
2022/08/21 07:43:45;;;;;;;0.73;0.70;;;23.70;57.60;;;;;;6214554;28;20338;-72
2022/08/21 07:46:45;;;;;;;1.02;0.60;;;23.70;57.60;;;;;;6222821;28;20038;-71
2022/08/21 07:49:46;;;;;;;0.98;0.63;;;23.70;57.60;;;;;;6222537;28;20029;-71
2022/08/21 07:52:47;;;;;;;0.80;0.60;;;23.70;57.60;;;;;;6213251;28;20023;-71
2022/08/21 07:55:48;;;;;;;0.80;0.60;;;23.70;57.60;;;;;;6198125;28;20488;-72
2022/08/21 07:58:48;;;;;;;0.77;0.65;;;23.70;57.60;;;;;;6215160;28;20105;-71
2022/08/21 08:01:49;;;;;;;0.52;0.52;;;23.70;57.60;;;;;;6222101;28;20475;-72
2022/08/21 08:04:50;;;;;;;0.98;0.68;;;23.70;57.60;;;;;;6197971;28;20038;-72
2022/08/21 08:07:51;;;;;;;0.70;0.60;;;23.70;57.60;;;;;;6204553;28;20034;-72
2022/08/21 08:10:53;;;;;;;0.43;0.43;;;23.70;57.60;;;;;;6222376;28;20029;-71
2022/08/21 08:13:54;;;;;;;0.80;0.70;;;23.70;57.60;;;;;;6206219;28;20034;-71
2022/08/21 08:16:54;;;;;;;0.47;0.40;;;23.70;57.60;;;;;;6198140;28;20056;-71
2022/08/21 08:19:55;;;;;;;0.60;0.57;;;23.70;57.60;;;;;;6220456;28;20041;-71
2022/08/21 08:22:56;;;;;;;0.60;0.60;;;23.70;57.60;;;;;;6215953;28;20366;-71
2022/08/21 08:25:57;;;;;;;0.70;0.50;;;23.70;57.60;;;;;;6197494;28;20519;-71
2022/08/21 08:28:57;;;;;;;0.80;0.65;;;23.70;57.60;;;;;;6206462;28;20064;-71
2022/08/21 08:31:58;;;;;;;0.82;0.70;;;23.70;57.60;;;;;;6197263;28;20054;-71
2022/08/21 08:34:59;;;;;;;0.50;0.47;;;23.70;57.60;;;;;;6219241;28;20535;-72
2022/08/21 08:37:59;;;;;;;0.70;0.50;;;23.70;57.60;;;;;;6216860;28;20034;-71
2022/08/21 08:41:09;;;;;;;0.70;0.63;;;23.70;57.60;;;;;;6197110;28;20038;-72
2022/08/21 08:44:10;;;;;;;0.60;0.50;;;23.70;57.60;;;;;;6201143;28;20038;-71
2022/08/21 08:47:15;;;;;;;0.85;0.60;;;23.70;57.60;;;;;;6197521;28;20035;-71
2022/08/21 08:50:25;;;;;;;1.15;0.63;;;23.70;57.60;;;;;;6219166;28;20119;-72
2022/08/21 08:53:31;;;;;;;0.60;0.52;;;23.70;57.60;;;;;;6215218;28;20066;-71
2022/08/21 08:56:33;;;;;;;0.63;0.60;;;23.70;57.60;;;;;;6197134;28;20026;-71
2022/08/21 08:59:46;;;;;;;0.73;0.60;;;23.70;57.60;;;;;;6210960;28;20101;-71
2022/08/21 09:02:48;;;;;;;0.90;0.70;;;23.70;57.60;;;;;;6220600;28;20121;-72
2022/08/21 09:06:06;;;;;;;0.52;0.52;;;23.70;57.60;;;;;;6187062;28;20038;-71
2022/08/21 09:09:08;;;;;;;0.85;0.63;;;23.70;57.60;;;;;;6204640;28;20045;-71
2022/08/21 09:12:32;;;;;;;0.82;0.60;;;23.70;57.60;;;;;;6207795;28;20050;-71
2022/08/21 09:15:42;;;;;;;0.50;0.40;;;23.70;57.60;;;;;;6206897;28;20053;-72
2022/08/21 09:18:54;;;;;;;0.85;0.60;;;23.70;57.60;;;;;;6211346;28;20613;-71
2022/08/21 09:22:16;;;;;;;0.55;0.50;;;23.70;57.60;;;;;;6212881;28;20073;-72
2022/08/21 09:25:26;;;;;;;1.45;0.63;;;23.70;57.60;;;;;;6225941;28;20057;-72
2022/08/21 09:28:26;;;;;;;1.30;0.65;;;23.70;57.60;;;;;;6212852;28;20031;-71
2022/08/21 09:31:34;;;;;;;0.57;0.40;;;23.70;57.60;;;;;;6222844;28;20054;-71
2022/08/21 09:34:35;;;;;;;0.40;0.40;;;23.70;57.60;;;;;;6213206;28;20060;-73
2022/08/21 09:37:53;;;;;;;0.70;0.60;;;23.70;57.60;;;;;;6224334;28;20042;-72
2022/08/21 09:41:11;;;;;;;0.70;0.40;;;23.70;57.70;;;;;;6203932;28;20052;-71
2022/08/21 09:44:12;;;;;;;0.60;0.60;;;23.70;57.60;;;;;;6203792;28;20022;-71
2022/08/21 09:47:12;;;;;;;0.80;0.50;;;23.70;57.60;;;;;;6200787;28;20050;-72
2022/08/21 09:50:21;;;;;;;0.47;0.40;;;23.70;57.60;;;;;;6210114;28;20101;-71
2022/08/21 09:53:26;;;;;;;0.60;0.50;;;23.70;57.60;;;;;;6209630;28;20404;-71
2022/08/21 09:59:53;;;;;;;0.65;0.52;;;23.70;57.60;;;;;;6207355;28;20070;-71
2022/08/21 10:02:53;;;;;;;0.60;0.50;;;23.70;57.60;;;;;;6219146;28;20066;-72
2022/08/21 10:06:05;;;;;;;0.38;0.38;;;23.70;57.60;;;;;;6216413;28;20476;-71
2022/08/21 10:09:15;;;;;;;0.50;0.50;;;23.70;57.60;;;;;;6221919;28;20030;-73
2022/08/21 10:12:23;;;;;;;0.45;0.40;;;23.70;57.60;;;;;;6218285;28;20022;-72
2022/08/21 10:15:35;;;;;;;0.60;0.50;;;23.70;57.50;;;;;;6210888;28;20034;-72
2022/08/21 10:18:41;;;;;;;0.88;0.52;;;23.70;57.70;;;;;;6207822;28;20025;-72
2022/08/21 10:21:50;;;;;;;0.57;0.40;;;23.70;57.50;;;;;;6202246;28;20034;-72
2022/08/21 10:24:57;;;;;;;0.93;0.45;;;23.70;57.50;;;;;;6200132;28;20022;-71
2022/08/21 10:28:11;;;;;;;1.13;0.60;;;23.70;57.60;;;;;;6198802;28;20389;-71
2022/08/21 10:31:37;;;;;;;0.40;0.40;;;23.70;57.60;;;;;;6213799;28;20046;-71
2022/08/21 10:35:15;;;;;;;0.60;0.50;;;23.70;57.60;;;;;;6232389;28;20037;-72
2022/08/21 10:38:46;;;;;;;0.47;0.40;;;23.70;57.60;;;;;;6223232;28;20395;-72
2022/08/21 10:41:52;;;;;;;0.60;0.40;;;23.70;57.60;;;;;;6218417;28;20591;-72
2022/08/21 10:45:34;;;;;;;0.40;0.40;;;23.70;57.60;;;;;;6210145;28;20408;-71
2022/08/21 10:48:53;;;;;;;0.50;0.50;;;23.70;57.60;;;;;;6202076;28;20034;-71
2022/08/21 10:52:06;;;;;;;0.52;0.50;;;23.70;57.60;;;;;;6203586;28;20584;-72
2022/08/21 10:55:12;;;;;;;0.50;0.50;;;23.70;57.60;;;;;;6210994;28;20034;-72
2022/08/21 10:58:36;;;;;;;0.50;0.50;;;23.70;57.60;;;;;;6211704;28;20055;-72
2022/08/21 11:01:51;;;;;;;0.50;0.40;;;23.70;57.60;;;;;;6214691;28;20053;-75
2022/08/21 11:05:13;;;;;;;0.93;0.60;;;23.70;57.80;;;;;;6197722;28;20056;-74
2022/08/21 11:08:20;;;;;;;0.60;0.40;;;23.80;57.60;;;;;;6222181;28;20073;-73
2022/08/21 11:11:32;;;;;;;0.93;0.50;;;23.80;57.70;;;;;;6221106;28;20117;-74
2022/08/21 11:14:46;;;;;;;0.52;0.50;;;23.80;57.70;;;;;;6210073;28;20519;-73
2022/08/21 11:18:02;;;;;;;0.98;0.40;;;23.80;57.70;;;;;;6199803;28;20101;-74
2022/08/21 11:21:26;;;;;;;2.30;0.50;;;23.80;57.80;;;;;;6211161;28;20045;-73
2022/08/21 11:24:59;;;;;;;0.75;0.40;;;23.70;57.70;;;;;;6207792;28;20080;-74
2022/08/21 11:28:09;;;;;;;1.90;0.50;;;23.70;57.80;;;;;;6198156;28;20101;-74
2022/08/21 11:31:27;;;;;;;0.45;0.40;;;23.70;57.80;;;;;;6218848;28;20133;-74
2022/08/21 11:34:41;;;;;;;2.30;0.77;;;23.70;57.80;;;;;;6202753;28;20136;-74
2022/08/21 11:38:00;;;;;;;1.45;0.57;;;23.70;57.80;;;;;;6202447;28;20477;-74
2022/08/21 11:41:18;;;;;;;0.45;0.30;;;23.70;57.80;;;;;;6211470;28;20046;-74
2022/08/21 11:44:57;;;;;;;1.13;0.60;;;23.70;57.80;;;;;;6199599;28;20065;-74
2022/08/21 11:48:21;;;;;;;0.40;0.40;;;23.70;57.70;;;;;;6175062;28;20038;-74
2022/08/21 11:51:33;;;;;;;0.93;0.50;;;23.70;57.70;;;;;;6206524;28;20018;-74
2022/08/21 11:54:45;;;;;;;0.65;0.50;;;23.70;57.70;;;;;;6213990;28;20034;-74
2022/08/21 11:57:58;;;;;;;0.43;0.40;;;23.70;57.70;;;;;;6220916;28;20030;-74
2022/08/21 12:01:15;;;;;;;0.60;0.40;;;23.70;58.40;;;;;;6216191;28;20030;-73
2022/08/21 12:04:32;;;;;;;0.40;0.40;;;23.70;57.80;;;;;;6199856;28;20038;-74
2022/08/21 12:07:37;;;;;;;0.60;0.50;;;23.70;57.80;;;;;;6207251;28;20092;-74
2022/08/21 12:10:42;;;;;;;0.52;0.40;;;23.70;57.70;;;;;;6212460;28;20029;-74
2022/08/21 12:13:58;;;;;;;;;;;23.70;57.70;;;;;;6199221;28;20034;-74
2022/08/21 12:17:05;;;;;;;0.70;0.47;;;23.70;58.50;;;;;;6210076;28;19910;-74
2022/08/21 12:20:26;;;;;;;0.50;0.50;;;23.70;57.80;;;;;;6198622;28;20042;-74
2022/08/21 12:23:49;;;;;;;0.40;0.40;;;23.70;57.80;;;;;;6219986;28;20519;-74
2022/08/21 12:27:12;;;;;;;0.40;0.40;;;23.70;57.80;;;;;;6210444;28;20023;-73
2022/08/21 12:30:43;;;;;;;1.30;0.60;;;23.70;57.70;;;;;;6199885;28;20033;-73
2022/08/21 12:33:51;;;;;;;0.47;0.32;;;23.70;57.80;;;;;;6200273;28;20046;-74
2022/08/21 12:37:25;;;;;;;0.50;0.50;;;23.70;57.70;;;;;;6207753;28;20022;-74
2022/08/21 12:40:43;;;;;;;0.73;0.50;;;23.70;57.70;;;;;;6181052;28;20128;-73
2022/08/21 12:43:51;;;;;;;0.70;0.50;;;23.70;57.70;;;;;;6207165;28;20026;-74
2022/08/21 12:47:03;;;;;;;0.30;0.30;;;23.70;57.80;;;;;;6232414;28;20027;-74
2022/08/21 12:50:16;;;;;;;1.08;0.50;;;23.70;57.70;;;;;;6195587;28;20035;-74
2022/08/21 12:53:27;;;;;;;0.40;0.30;;;23.70;57.70;;;;;;6206137;28;20062;-75
2022/08/21 12:56:32;;;;;;;0.60;0.40;;;23.70;57.80;;;;;;6205789;28;20536;-74
2022/08/21 12:59:37;;;;;;;0.40;0.40;;;23.70;57.70;;;;;;6219709;28;20030;-74
2022/08/21 13:02:46;;;;;;;0.55;0.55;;;23.70;57.70;;;;;;6213710;28;20477;-74
2022/08/21 13:05:47;;;;;;;0.50;0.40;;;23.70;57.70;;;;;;6194297;28;20046;-74
2022/08/21 13:08:51;;;;;;;0.45;0.35;;;23.70;57.70;;;;;;6207990;28;20042;-74
2022/08/21 13:11:52;;;;;;;0.30;0.30;;;23.70;57.70;;;;;;6216602;28;20034;-75
2022/08/21 13:14:57;;;;;;;0.30;0.30;;;23.70;57.70;;;;;;6196193;28;20567;-74
2022/08/21 13:18:01;;;;;;;0.30;0.30;;;23.70;57.70;;;;;;6207089;28;20173;-72
2022/08/21 13:21:21;;;;;;;0.40;0.30;;;23.70;57.70;;;;;;6209298;28;20048;-74
2022/08/21 13:24:37;;;;;;;0.32;0.32;;;23.70;57.60;;;;;;6203696;28;20030;-75
2022/08/21 13:27:38;;;;;;;1.00;0.43;;;23.80;57.70;;;;;;6202669;28;20036;-74
2022/08/21 13:30:46;;;;;;;0.30;0.30;;;23.80;57.70;;;;;;6234099;28;20484;-74
2022/08/21 13:33:49;;;;;;;3.53;0.43;;;23.80;57.90;;;;;;6207295;28;20476;-74
2022/08/21 13:36:58;;;;;;;1.20;0.32;;;23.80;57.80;;;;;;6218606;28;20022;-74
2022/08/21 13:39:59;;;;;;;0.73;0.30;;;23.80;57.50;;;;;;6198131;28;20109;-75
2022/08/21 13:43:00;;;;;;;1.10;0.52;;;23.80;57.70;;;;;;6207473;28;20358;-75
2022/08/21 13:46:07;;;;;;;0.47;0.40;;;23.80;57.70;;;;;;6195694;28;20030;-74
2022/08/21 13:49:09;;;;;;;0.43;0.35;;;23.80;57.70;;;;;;6216395;28;20036;-74
2022/08/21 13:52:28;;;;;;;2.97;0.55;;;23.80;57.80;;;;;;6206495;28;20069;-74
2022/08/21 13:55:43;;;;;;;0.52;0.50;;;23.80;58.50;;;;;;6196193;28;20085;-74
2022/08/21 13:58:46;;;;;;;0.73;0.37;;;23.80;57.90;;;;;;6202721;28;20033;-74
2022/08/21 14:01:58;;;;;;;0.30;0.30;;;23.80;57.90;;;;;;6218716;28;20119;-75
2022/08/21 14:05:03;;;;;;;0.70;0.30;;;23.70;57.80;;;;;;6203808;28;20109;-74
2022/08/21 14:08:15;;;;;;;1.20;0.60;;;23.80;57.80;;;;;;6212502;28;20034;-75
2022/08/21 14:11:16;;;;;;;1.77;0.40;;;23.80;57.90;;;;;;6209638;28;20038;-74
2022/08/21 14:14:33;;;;;;;0.50;0.30;;;23.70;57.80;;;;;;6210316;28;20495;-75
2022/08/21 14:17:38;;;;;;;0.65;0.40;;;23.70;57.80;;;;;;6212908;28;20041;-74
2022/08/21 14:20:39;;;;;;;0.30;0.30;;;23.70;57.80;;;;;;6220545;28;20479;-74
2022/08/21 14:23:41;;;;;;;0.45;0.40;;;23.70;57.80;;;;;;6222802;28;20072;-75
2022/08/21 14:27:05;;;;;;;0.77;0.40;;;23.70;57.80;;;;;;6220415;28;20050;-74
2022/08/21 14:30:18;;;;;;;0.52;0.35;;;23.70;57.80;;;;;;6222818;28;20562;-75
2022/08/21 14:33:26;;;;;;;0.40;0.40;;;23.70;57.80;;;;;;6222466;28;20050;-75
2022/08/21 14:36:27;;;;;;;0.60;0.50;;;23.70;57.70;;;;;;6223209;28;20080;-75
2022/08/21 14:39:27;;;;;;;0.55;0.40;;;23.70;57.80;;;;;;6214144;28;20030;-74
2022/08/21 14:42:29;;;;;;;0.65;0.40;;;23.70;57.80;;;;;;6222481;28;20088;-73
2022/08/21 14:45:31;;;;;;;0.38;0.32;;;23.70;57.70;;;;;;6222602;28;20029;-74
2022/08/21 14:48:31;;;;;;;0.30;0.30;;;23.70;57.80;;;;;;6211904;28;20026;-74
2022/08/21 14:51:32;;;;;;;0.40;0.30;;;23.70;57.80;;;;;;6199456;28;20084;-74
2022/08/21 14:54:33;;;;;;;0.30;0.30;;;23.70;57.80;;;;;;6206869;28;20076;-75
2022/08/21 14:57:34;;;;;;;0.30;0.30;;;23.70;57.80;;;;;;6218322;28;20042;-75
2022/08/21 15:00:35;;;;;;;0.55;0.50;;;23.70;57.70;;;;;;6215961;28;20026;-74
2022/08/21 15:03:37;;;;;;;0.20;0.20;;;23.70;57.80;;;;;;6222016;28;20048;-74
2022/08/21 15:06:37;;;;;;;0.30;0.30;;;23.70;57.70;;;;;;6222844;28;20030;-75
2022/08/21 15:09:38;;;;;;;0.40;0.40;;;23.70;57.80;;;;;;6212379;28;20072;-74
2022/08/21 15:12:39;;;;;;;0.52;0.40;;;23.70;57.80;;;;;;6198434;28;20551;-75
2022/08/21 15:15:43;;;;;;;0.47;0.40;;;23.70;57.70;;;;;;6208298;28;20049;-74
2022/08/21 15:18:44;;;;;;;0.30;0.30;;;23.70;57.80;;;;;;6210047;28;20391;-75
2022/08/21 15:21:44;;;;;;;0.20;0.20;;;23.70;57.80;;;;;;6224128;28;20080;-74
2022/08/21 15:24:45;;;;;;;0.35;0.30;;;23.70;57.80;;;;;;6204699;28;20014;-74
2022/08/21 15:27:46;;;;;;;1.05;0.40;;;23.70;57.80;;;;;;6221363;28;20498;-74
2022/08/21 15:30:47;;;;;;;0.55;0.47;;;23.70;57.80;;;;;;6208219;28;20022;-74
2022/08/21 15:33:48;;;;;;;0.70;0.30;;;23.70;57.80;;;;;;6204961;28;20060;-75
2022/08/21 15:36:48;;;;;;;0.30;0.30;;;23.70;57.80;;;;;;6221792;28;20030;-74
2022/08/21 15:39:50;;;;;;;0.35;0.35;;;23.70;57.80;;;;;;6217684;28;20019;-74
2022/08/21 15:42:57;;;;;;;0.45;0.45;;;23.70;57.70;;;;;;6212967;28;20149;-75
2022/08/21 15:45:59;;;;;;;0.50;0.40;;;23.70;57.80;;;;;;6206859;28;20026;-75
2022/08/21 15:49:00;;;;;;;0.25;0.25;;;23.70;57.80;;;;;;6210435;28;20033;-74
2022/08/21 15:52:01;;;;;;;0.30;0.30;;;23.70;57.80;;;;;;6220681;28;20388;-74
2022/08/21 15:55:03;;;;;;;0.30;0.30;;;23.70;57.80;;;;;;6216606;28;20045;-75
2022/08/21 15:58:04;;;;;;;0.77;0.40;;;23.70;57.80;;;;;;6196956;28;20053;-74
2022/08/21 16:01:05;;;;;;;1.33;0.30;;;23.70;57.80;;;;;;6213241;28;20034;-74
2022/08/21 16:04:07;;;;;;;0.30;0.30;;;23.70;57.80;;;;;;6220133;28;20117;-73
2022/08/21 16:07:07;;;;;;;0.30;0.30;;;23.70;57.80;;;;;;6201976;28;20030;-74
2022/08/21 16:10:08;;;;;;;0.30;0.30;;;23.70;57.80;;;;;;6209962;28;20014;-74